sensor_id;sensor_type;location;lat;lon;timestamp;pressure;altitude;pressure_sealevel;temperature;humidity
59588;BME280;45412;54.472;18.464;2023-02-20T00:01:32;99663.02;;;2.65;90.45
59588;BME280;45412;54.472;18.464;2023-02-20T00:04:20;99655.02;;;2.67;89.70
59588;BME280;45412;54.472;18.464;2023-02-20T00:07:08;99652.61;;;2.70;89.64
59588;BME280;45412;54.472;18.464;2023-02-20T00:09:57;99653.91;;;2.72;89.45
59588;BME280;45412;54.472;18.464;2023-02-20T00:12:44;99650.36;;;2.72;89.17
59588;BME280;45412;54.472;18.464;2023-02-20T00:15:33;99645.04;;;2.74;88.94
59588;BME280;45412;54.472;18.464;2023-02-20T00:18:21;99642.05;;;2.74;88.66
59588;BME280;45412;54.472;18.464;2023-02-20T00:21:09;99633.66;;;2.73;88.27
59588;BME280;45412;54.472;18.464;2023-02-20T00:23:57;99631.48;;;2.72;88.22
59588;BME280;45412;54.472;18.464;2023-02-20T00:26:47;99626.55;;;2.69;87.87
59588;BME280;45412;54.472;18.464;2023-02-20T00:29:36;99629.16;;;2.66;87.86
59588;BME280;45412;54.472;18.464;2023-02-20T00:32:24;99633.91;;;2.62;87.79
59588;BME280;45412;54.472;18.464;2023-02-20T00:35:13;99632.48;;;2.60;88.06
59588;BME280;45412;54.472;18.464;2023-02-20T00:38:01;99639.46;;;2.57;88.05
59588;BME280;45412;54.472;18.464;2023-02-20T00:40:49;99648.36;;;2.54;88.29
59588;BME280;45412;54.472;18.464;2023-02-20T00:43:37;99655.70;;;2.61;88.19
59588;BME280;45412;54.472;18.464;2023-02-20T00:46:25;99644.70;;;2.63;87.92
59588;BME280;45412;54.472;18.464;2023-02-20T00:49:13;99634.40;;;2.66;87.52
59588;BME280;45412;54.472;18.464;2023-02-20T00:52:07;99624.12;;;2.68;87.36
59588;BME280;45412;54.472;18.464;2023-02-20T00:54:55;99628.17;;;2.71;87.21
59588;BME280;45412;54.472;18.464;2023-02-20T00:57:43;99629.95;;;2.74;87.18
59588;BME280;45412;54.472;18.464;2023-02-20T01:00:31;99633.36;;;2.76;87.16
59588;BME280;45412;54.472;18.464;2023-02-20T01:03:19;99638.59;;;2.77;86.70
59588;BME280;45412;54.472;18.464;2023-02-20T01:06:07;99647.70;;;2.80;86.80
59588;BME280;45412;54.472;18.464;2023-02-20T01:08:55;99654.09;;;2.82;86.83
59588;BME280;45412;54.472;18.464;2023-02-20T01:11:43;99646.55;;;2.82;86.56
59588;BME280;45412;54.472;18.464;2023-02-20T01:14:32;99640.70;;;2.83;86.16
59588;BME280;45412;54.472;18.464;2023-02-20T01:17:21;99634.36;;;2.84;85.79
59588;BME280;45412;54.472;18.464;2023-02-20T01:20:09;99626.85;;;2.87;85.84
59588;BME280;45412;54.472;18.464;2023-02-20T01:22:58;99614.34;;;2.85;84.74
59588;BME280;45412;54.472;18.464;2023-02-20T01:25:46;99611.38;;;2.84;84.38
59588;BME280;45412;54.472;18.464;2023-02-20T01:28:34;99610.77;;;2.86;83.91
59588;BME280;45412;54.472;18.464;2023-02-20T01:31:23;99614.73;;;2.87;84.25
59588;BME280;45412;54.472;18.464;2023-02-20T01:34:11;99618.38;;;2.88;84.19
59588;BME280;45412;54.472;18.464;2023-02-20T01:36:59;99618.75;;;2.87;84.03
59588;BME280;45412;54.472;18.464;2023-02-20T01:39:47;99618.20;;;2.88;83.81
59588;BME280;45412;54.472;18.464;2023-02-20T01:42:35;99615.61;;;2.87;83.91
59588;BME280;45412;54.472;18.464;2023-02-20T01:48:24;99599.69;;;2.84;83.99
59588;BME280;45412;54.472;18.464;2023-02-20T01:51:12;99592.20;;;2.79;83.86
59588;BME280;45412;54.472;18.464;2023-02-20T01:54:01;99590.94;;;2.77;84.05
59588;BME280;45412;54.472;18.464;2023-02-20T01:56:52;99583.09;;;2.76;84.20
59588;BME280;45412;54.472;18.464;2023-02-20T01:59:42;99580.17;;;2.75;84.37
59588;BME280;45412;54.472;18.464;2023-02-20T02:02:36;99572.61;;;2.75;84.56
59588;BME280;45412;54.472;18.464;2023-02-20T02:05:28;99572.11;;;2.75;84.70
59588;BME280;45412;54.472;18.464;2023-02-20T02:08:19;99571.52;;;2.73;84.92
59588;BME280;45412;54.472;18.464;2023-02-20T02:11:14;99560.64;;;2.73;84.78
59588;BME280;45412;54.472;18.464;2023-02-20T02:14:03;99557.80;;;2.73;84.97
59588;BME280;45412;54.472;18.464;2023-02-20T02:36:54;99545.55;;;2.73;85.47
59588;BME280;45412;54.472;18.464;2023-02-20T02:43:22;99543.27;;;2.70;85.66
59588;BME280;45412;54.472;18.464;2023-02-20T02:46:39;99543.60;;;2.70;85.68
59588;BME280;45412;54.472;18.464;2023-02-20T02:49:56;99541.38;;;2.69;85.79
59588;BME280;45412;54.472;18.464;2023-02-20T02:52:47;99539.39;;;2.71;85.77
59588;BME280;45412;54.472;18.464;2023-02-20T02:55:36;99531.85;;;2.71;85.96
59588;BME280;45412;54.472;18.464;2023-02-20T02:58:24;99526.52;;;2.69;86.20
59588;BME280;45412;54.472;18.464;2023-02-20T03:01:13;99527.87;;;2.70;86.46
59588;BME280;45412;54.472;18.464;2023-02-20T03:04:04;99524.92;;;2.69;86.80
59588;BME280;45412;54.472;18.464;2023-02-20T03:06:58;99524.77;;;2.69;87.05
59588;BME280;45412;54.472;18.464;2023-02-20T03:10:03;99523.71;;;2.69;86.94
59588;BME280;45412;54.472;18.464;2023-02-20T03:12:57;99511.92;;;2.67;87.52
59588;BME280;45412;54.472;18.464;2023-02-20T03:15:51;99504.20;;;2.64;87.61
59588;BME280;45412;54.472;18.464;2023-02-20T03:18:42;99498.74;;;2.61;87.93
59588;BME280;45412;54.472;18.464;2023-02-20T03:21:33;99492.34;;;2.60;87.91
59588;BME280;45412;54.472;18.464;2023-02-20T03:24:24;99493.25;;;2.56;87.97
59588;BME280;45412;54.472;18.464;2023-02-20T03:27:13;99494.83;;;2.53;88.40
59588;BME280;45412;54.472;18.464;2023-02-20T03:30:01;99489.16;;;2.47;89.06
59588;BME280;45412;54.472;18.464;2023-02-20T03:32:53;99489.65;;;2.44;88.93
59588;BME280;45412;54.472;18.464;2023-02-20T03:36:09;99485.30;;;2.41;89.65
59588;BME280;45412;54.472;18.464;2023-02-20T03:39:24;99487.22;;;2.37;90.19
59588;BME280;45412;54.472;18.464;2023-02-20T03:42:36;99491.20;;;2.35;90.20
59588;BME280;45412;54.472;18.464;2023-02-20T03:45:51;99486.61;;;2.32;90.44
59588;BME280;45412;54.472;18.464;2023-02-20T03:48:49;99489.57;;;2.29;90.34
59588;BME280;45412;54.472;18.464;2023-02-20T03:51:40;99488.13;;;2.27;90.24
59588;BME280;45412;54.472;18.464;2023-02-20T03:54:34;99483.01;;;2.28;90.25
59588;BME280;45412;54.472;18.464;2023-02-20T03:57:46;99479.31;;;2.28;89.93
59588;BME280;45412;54.472;18.464;2023-02-20T04:00:42;99467.27;;;2.24;89.95
59588;BME280;45412;54.472;18.464;2023-02-20T04:03:38;99462.08;;;2.23;89.59
59588;BME280;45412;54.472;18.464;2023-02-20T04:06:31;99461.91;;;2.23;89.50
59588;BME280;45412;54.472;18.464;2023-02-20T04:09:31;99453.07;;;2.21;89.15
59588;BME280;45412;54.472;18.464;2023-02-20T04:12:24;99447.73;;;2.19;88.99
59588;BME280;45412;54.472;18.464;2023-02-20T04:15:14;99446.41;;;2.14;88.57
59588;BME280;45412;54.472;18.464;2023-02-20T04:18:10;99436.31;;;2.10;88.77
59588;BME280;45412;54.472;18.464;2023-02-20T04:21:01;99430.40;;;2.06;88.78
59588;BME280;45412;54.472;18.464;2023-02-20T04:24:13;99412.99;;;2.01;88.83
59588;BME280;45412;54.472;18.464;2023-02-20T04:27:04;99410.24;;;1.96;88.93
59588;BME280;45412;54.472;18.464;2023-02-20T04:29:54;99415.98;;;1.94;89.32
59588;BME280;45412;54.472;18.464;2023-02-20T04:32:42;99402.74;;;1.89;89.54
59588;BME280;45412;54.472;18.464;2023-02-20T04:35:31;99403.35;;;1.88;90.17
59588;BME280;45412;54.472;18.464;2023-02-20T04:38:19;99387.30;;;1.84;89.88
59588;BME280;45412;54.472;18.464;2023-02-20T04:41:08;99386.49;;;1.85;90.14
59588;BME280;45412;54.472;18.464;2023-02-20T04:43:56;99379.12;;;1.83;90.36
59588;BME280;45412;54.472;18.464;2023-02-20T04:47:13;99380.50;;;1.80;90.68
59588;BME280;45412;54.472;18.464;2023-02-20T04:50:03;99364.92;;;1.77;90.75
59588;BME280;45412;54.472;18.464;2023-02-20T04:52:51;99358.84;;;1.73;90.99
59588;BME280;45412;54.472;18.464;2023-02-20T04:55:40;99350.08;;;1.69;92.06
59588;BME280;45412;54.472;18.464;2023-02-20T04:58:31;99349.02;;;1.66;92.54
59588;BME280;45412;54.472;18.464;2023-02-20T05:01:29;99345.55;;;1.62;92.99
59588;BME280;45412;54.472;18.464;2023-02-20T05:04:18;99347.77;;;1.60;93.23
59588;BME280;45412;54.472;18.464;2023-02-20T05:07:06;99342.70;;;1.60;93.23
59588;BME280;45412;54.472;18.464;2023-02-20T05:09:54;99333.94;;;1.61;93.40
59588;BME280;45412;54.472;18.464;2023-02-20T05:12:42;99324.34;;;1.60;93.56
59588;BME280;45412;54.472;18.464;2023-02-20T05:15:30;99316.83;;;1.60;93.53
59588;BME280;45412;54.472;18.464;2023-02-20T05:18:28;99314.09;;;1.59;93.58
59588;BME280;45412;54.472;18.464;2023-02-20T05:21:16;99314.30;;;1.58;93.69
59588;BME280;45412;54.472;18.464;2023-02-20T05:24:23;99311.09;;;1.56;93.62
59588;BME280;45412;54.472;18.464;2023-02-20T05:27:13;99293.66;;;1.51;93.64
59588;BME280;45412;54.472;18.464;2023-02-20T05:30:02;99280.08;;;1.47;93.79
59588;BME280;45412;54.472;18.464;2023-02-20T05:32:50;99276.95;;;1.43;93.92
59588;BME280;45412;54.472;18.464;2023-02-20T05:35:38;99273.27;;;1.40;94.21
59588;BME280;45412;54.472;18.464;2023-02-20T05:38:27;99270.14;;;1.36;94.41
59588;BME280;45412;54.472;18.464;2023-02-20T05:41:15;99269.52;;;1.35;94.67
59588;BME280;45412;54.472;18.464;2023-02-20T05:44:04;99268.08;;;1.32;94.90
59588;BME280;45412;54.472;18.464;2023-02-20T05:46:52;99260.08;;;1.31;95.13
59588;BME280;45412;54.472;18.464;2023-02-20T05:49:43;99252.91;;;1.28;95.42
59588;BME280;45412;54.472;18.464;2023-02-20T05:52:31;99252.82;;;1.27;95.90
59588;BME280;45412;54.472;18.464;2023-02-20T05:55:19;99248.98;;;1.27;95.95
59588;BME280;45412;54.472;18.464;2023-02-20T05:58:07;99239.21;;;1.26;96.19
59588;BME280;45412;54.472;18.464;2023-02-20T06:00:55;99219.11;;;1.23;96.78
59588;BME280;45412;54.472;18.464;2023-02-20T06:03:43;99207.50;;;1.18;96.78
59588;BME280;45412;54.472;18.464;2023-02-20T06:06:40;99201.50;;;1.12;97.24
59588;BME280;45412;54.472;18.464;2023-02-20T06:09:28;99188.13;;;1.07;97.38
59588;BME280;45412;54.472;18.464;2023-02-20T06:12:16;99175.95;;;1.00;97.84
59588;BME280;45412;54.472;18.464;2023-02-20T06:15:04;99188.44;;;1.01;98.07
59588;BME280;45412;54.472;18.464;2023-02-20T06:17:52;99180.81;;;0.97;98.96
59588;BME280;45412;54.472;18.464;2023-02-20T06:20:40;99179.46;;;0.92;99.40
59588;BME280;45412;54.472;18.464;2023-02-20T06:23:28;99170.48;;;0.87;99.69
59588;BME280;45412;54.472;18.464;2023-02-20T06:26:18;99159.19;;;0.82;99.89
59588;BME280;45412;54.472;18.464;2023-02-20T06:29:06;99153.11;;;0.82;99.95
59588;BME280;45412;54.472;18.464;2023-02-20T06:31:57;99144.95;;;0.81;99.98
59588;BME280;45412;54.472;18.464;2023-02-20T06:34:45;99130.48;;;0.81;100.00
59588;BME280;45412;54.472;18.464;2023-02-20T06:37:33;99121.22;;;0.80;100.00
59588;BME280;45412;54.472;18.464;2023-02-20T06:40:22;99119.39;;;0.79;100.00
59588;BME280;45412;54.472;18.464;2023-02-20T06:43:09;99124.20;;;0.77;100.00
59588;BME280;45412;54.472;18.464;2023-02-20T06:45:57;99119.67;;;0.77;100.00
59588;BME280;45412;54.472;18.464;2023-02-20T06:48:51;99100.04;;;0.75;100.00
59588;BME280;45412;54.472;18.464;2023-02-20T06:51:40;99099.92;;;0.71;100.00
59588;BME280;45412;54.472;18.464;2023-02-20T06:54:28;99104.59;;;0.68;100.00
59588;BME280;45412;54.472;18.464;2023-02-20T06:57:16;99097.63;;;0.64;100.00
59588;BME280;45412;54.472;18.464;2023-02-20T07:00:05;99096.34;;;0.65;100.00
59588;BME280;45412;54.472;18.464;2023-02-20T07:02:53;99086.48;;;0.63;100.00
59588;BME280;45412;54.472;18.464;2023-02-20T07:05:41;99074.80;;;0.63;100.00
59588;BME280;45412;54.472;18.464;2023-02-20T07:08:29;99067.01;;;0.62;100.00
59588;BME280;45412;54.472;18.464;2023-02-20T07:11:20;99062.55;;;0.60;100.00
59588;BME280;45412;54.472;18.464;2023-02-20T07:14:08;99048.64;;;0.60;100.00
59588;BME280;45412;54.472;18.464;2023-02-20T07:16:56;99038.56;;;0.59;100.00
59588;BME280;45412;54.472;18.464;2023-02-20T07:19:44;99013.58;;;0.56;100.00
59588;BME280;45412;54.472;18.464;2023-02-20T07:22:32;99015.41;;;0.50;100.00
59588;BME280;45412;54.472;18.464;2023-02-20T07:25:21;99000.77;;;0.47;100.00
59588;BME280;45412;54.472;18.464;2023-02-20T07:28:10;98998.70;;;0.43;100.00
59588;BME280;45412;54.472;18.464;2023-02-20T07:30:58;98980.07;;;0.39;100.00
59588;BME280;45412;54.472;18.464;2023-02-20T07:33:46;98965.85;;;0.34;100.00
59588;BME280;45412;54.472;18.464;2023-02-20T07:36:34;98956.09;;;0.30;100.00
59588;BME280;45412;54.472;18.464;2023-02-20T07:39:23;98944.15;;;0.29;100.00
59588;BME280;45412;54.472;18.464;2023-02-20T07:42:13;98945.27;;;0.30;100.00
59588;BME280;45412;54.472;18.464;2023-02-20T07:45:10;98929.47;;;0.32;100.00
59588;BME280;45412;54.472;18.464;2023-02-20T07:47:58;98923.58;;;0.28;100.00
59588;BME280;45412;54.472;18.464;2023-02-20T07:50:46;98929.96;;;0.33;100.00
59588;BME280;45412;54.472;18.464;2023-02-20T07:53:34;98920.65;;;0.31;100.00
59588;BME280;45412;54.472;18.464;2023-02-20T07:56:23;98910.91;;;0.33;100.00
59588;BME280;45412;54.472;18.464;2023-02-20T07:59:11;98893.27;;;0.34;100.00
59588;BME280;45412;54.472;18.464;2023-02-20T08:01:59;98873.14;;;0.31;100.00
59588;BME280;45412;54.472;18.464;2023-02-20T08:04:47;98863.17;;;0.32;100.00
59588;BME280;45412;54.472;18.464;2023-02-20T08:07:36;98850.95;;;0.32;100.00
59588;BME280;45412;54.472;18.464;2023-02-20T08:10:27;98846.46;;;0.28;100.00
59588;BME280;45412;54.472;18.464;2023-02-20T08:13:15;98840.70;;;0.28;100.00
59588;BME280;45412;54.472;18.464;2023-02-20T08:16:03;98827.02;;;0.29;100.00
59588;BME280;45412;54.472;18.464;2023-02-20T08:18:52;98816.73;;;0.29;100.00
59588;BME280;45412;54.472;18.464;2023-02-20T08:21:41;98805.06;;;0.36;100.00
59588;BME280;45412;54.472;18.464;2023-02-20T08:24:29;98800.44;;;0.40;100.00
59588;BME280;45412;54.472;18.464;2023-02-20T08:27:16;98783.70;;;0.43;100.00
59588;BME280;45412;54.472;18.464;2023-02-20T08:30:06;98768.81;;;0.47;100.00
59588;BME280;45412;54.472;18.464;2023-02-20T08:32:54;98760.84;;;0.49;100.00
59588;BME280;45412;54.472;18.464;2023-02-20T08:35:42;98721.77;;;0.52;100.00
59588;BME280;45412;54.472;18.464;2023-02-20T08:38:36;98717.58;;;0.58;100.00
59588;BME280;45412;54.472;18.464;2023-02-20T08:41:30;98688.53;;;0.62;100.00
59588;BME280;45412;54.472;18.464;2023-02-20T08:44:18;98676.27;;;0.69;100.00
59588;BME280;45412;54.472;18.464;2023-02-20T08:47:07;98666.30;;;0.90;100.00
59588;BME280;45412;54.472;18.464;2023-02-20T08:49:55;98643.16;;;1.00;100.00
59588;BME280;45412;54.472;18.464;2023-02-20T08:52:44;98618.97;;;1.07;100.00
59588;BME280;45412;54.472;18.464;2023-02-20T08:55:32;98597.26;;;1.13;100.00
59588;BME280;45412;54.472;18.464;2023-02-20T08:58:21;98567.95;;;1.18;100.00
59588;BME280;45412;54.472;18.464;2023-02-20T09:01:10;98586.12;;;1.24;100.00
59588;BME280;45412;54.472;18.464;2023-02-20T09:03:58;98599.65;;;1.28;100.00
59588;BME280;45412;54.472;18.464;2023-02-20T09:06:46;98585.77;;;1.35;100.00
59588;BME280;45412;54.472;18.464;2023-02-20T09:09:34;98590.46;;;1.44;100.00
59588;BME280;45412;54.472;18.464;2023-02-20T09:12:22;98574.46;;;1.51;100.00
59588;BME280;45412;54.472;18.464;2023-02-20T09:15:10;98557.33;;;1.57;100.00
59588;BME280;45412;54.472;18.464;2023-02-20T09:17:58;98541.48;;;1.58;100.00
59588;BME280;45412;54.472;18.464;2023-02-20T09:20:47;98535.59;;;1.63;100.00
59588;BME280;45412;54.472;18.464;2023-02-20T09:23:34;98522.87;;;1.67;100.00
59588;BME280;45412;54.472;18.464;2023-02-20T09:26:22;98521.64;;;1.73;100.00
59588;BME280;45412;54.472;18.464;2023-02-20T09:29:10;98508.61;;;1.77;100.00
59588;BME280;45412;54.472;18.464;2023-02-20T09:31:58;98496.39;;;1.82;100.00
59588;BME280;45412;54.472;18.464;2023-02-20T09:34:46;98500.64;;;1.86;100.00
59588;BME280;45412;54.472;18.464;2023-02-20T09:37:34;98503.48;;;1.91;100.00
59588;BME280;45412;54.472;18.464;2023-02-20T09:40:28;98500.72;;;1.93;100.00
59588;BME280;45412;54.472;18.464;2023-02-20T09:43:43;98489.42;;;1.97;100.00
59588;BME280;45412;54.472;18.464;2023-02-20T09:46:38;98491.98;;;2.03;100.00
59588;BME280;45412;54.472;18.464;2023-02-20T09:49:32;98482.47;;;2.12;100.00
59588;BME280;45412;54.472;18.464;2023-02-20T09:52:21;98463.15;;;2.21;100.00
59588;BME280;45412;54.472;18.464;2023-02-20T09:55:14;98456.35;;;2.31;100.00
59588;BME280;45412;54.472;18.464;2023-02-20T09:58:19;98447.25;;;2.41;100.00
59588;BME280;45412;54.472;18.464;2023-02-20T10:01:12;98435.98;;;2.52;100.00
59588;BME280;45412;54.472;18.464;2023-02-20T10:04:20;98428.69;;;2.58;100.00
59588;BME280;45412;54.472;18.464;2023-02-20T10:07:31;98444.17;;;2.67;100.00
59588;BME280;45412;54.472;18.464;2023-02-20T10:10:28;98440.10;;;2.76;100.00
59588;BME280;45412;54.472;18.464;2023-02-20T10:13:42;98415.04;;;2.83;100.00
59588;BME280;45412;54.472;18.464;2023-02-20T10:16:53;98400.92;;;2.92;100.00
59588;BME280;45412;54.472;18.464;2023-02-20T10:23:27;98368.63;;;3.10;100.00
59588;BME280;45412;54.472;18.464;2023-02-20T10:26:42;98356.54;;;3.16;100.00
59588;BME280;45412;54.472;18.464;2023-02-20T10:29:34;98328.51;;;3.21;100.00
59588;BME280;45412;54.472;18.464;2023-02-20T10:32:47;98328.78;;;3.31;100.00
59588;BME280;45412;54.472;18.464;2023-02-20T10:36:06;98317.69;;;3.41;100.00
59588;BME280;45412;54.472;18.464;2023-02-20T10:39:17;98303.07;;;3.52;100.00
59588;BME280;45412;54.472;18.464;2023-02-20T10:42:14;98292.56;;;3.61;100.00
59588;BME280;45412;54.472;18.464;2023-02-20T10:45:13;98289.91;;;3.70;100.00
59588;BME280;45412;54.472;18.464;2023-02-20T10:48:10;98278.42;;;3.80;100.00
59588;BME280;45412;54.472;18.464;2023-02-20T10:54:11;98277.87;;;3.98;100.00
59588;BME280;45412;54.472;18.464;2023-02-20T11:01:13;98267.13;;;4.21;100.00
59588;BME280;45412;54.472;18.464;2023-02-20T11:03:48;98243.98;;;4.32;100.00
59588;BME280;45412;54.472;18.464;2023-02-20T11:06:45;98238.98;;;4.39;100.00
59588;BME280;45412;54.472;18.464;2023-02-20T11:09:34;98244.10;;;4.48;100.00
59588;BME280;45412;54.472;18.464;2023-02-20T11:12:45;98240.33;;;4.55;100.00
59588;BME280;45412;54.472;18.464;2023-02-20T11:15:35;98232.46;;;4.63;100.00
59588;BME280;45412;54.472;18.464;2023-02-20T11:18:35;98233.65;;;4.68;100.00
59588;BME280;45412;54.472;18.464;2023-02-20T11:21:42;98235.97;;;4.74;100.00
59588;BME280;45412;54.472;18.464;2023-02-20T11:24:37;98234.56;;;4.79;100.00
59588;BME280;45412;54.472;18.464;2023-02-20T11:27:25;98234.24;;;4.80;100.00
59588;BME280;45412;54.472;18.464;2023-02-20T11:30:34;98237.86;;;4.87;100.00
59588;BME280;45412;54.472;18.464;2023-02-20T11:33:25;98237.63;;;4.92;100.00
59588;BME280;45412;54.472;18.464;2023-02-20T11:36:18;98218.63;;;4.94;100.00
59588;BME280;45412;54.472;18.464;2023-02-20T11:39:30;98227.25;;;4.97;100.00
59588;BME280;45412;54.472;18.464;2023-02-20T11:42:21;98221.83;;;4.99;100.00
59588;BME280;45412;54.472;18.464;2023-02-20T11:48:17;98201.23;;;5.05;100.00
59588;BME280;45412;54.472;18.464;2023-02-20T11:51:05;98204.08;;;5.09;100.00
59588;BME280;45412;54.472;18.464;2023-02-20T11:54:19;98197.11;;;5.12;100.00
59588;BME280;45412;54.472;18.464;2023-02-20T12:00:23;98174.38;;;5.21;100.00
59588;BME280;45412;54.472;18.464;2023-02-20T12:03:17;98169.84;;;5.29;100.00
59588;BME280;45412;54.472;18.464;2023-02-20T12:09:25;98154.97;;;5.37;100.00
59588;BME280;45412;54.472;18.464;2023-02-20T12:12:15;98154.83;;;5.40;100.00
59588;BME280;45412;54.472;18.464;2023-02-20T12:15:12;98152.39;;;5.44;100.00
59588;BME280;45412;54.472;18.464;2023-02-20T12:18:42;98156.10;;;5.48;100.00
59588;BME280;45412;54.472;18.464;2023-02-20T12:25:27;98129.60;;;5.52;100.00
59588;BME280;45412;54.472;18.464;2023-02-20T12:28:31;98134.05;;;5.55;100.00
59588;BME280;45412;54.472;18.464;2023-02-20T12:53:19;98102.33;;;5.73;100.00
59588;BME280;45412;54.472;18.464;2023-02-20T12:59:24;98102.21;;;5.76;100.00
59588;BME280;45412;54.472;18.464;2023-02-20T13:02:23;98101.98;;;5.75;100.00
59588;BME280;45412;54.472;18.464;2023-02-20T13:05:28;98100.68;;;5.74;100.00
59588;BME280;45412;54.472;18.464;2023-02-20T13:08:35;98110.48;;;5.79;100.00
59588;BME280;45412;54.472;18.464;2023-02-20T13:11:25;98102.42;;;5.82;100.00
59588;BME280;45412;54.472;18.464;2023-02-20T13:14:53;98095.81;;;5.84;100.00
59588;BME280;45412;54.472;18.464;2023-02-20T13:17:58;98091.45;;;5.83;100.00
59588;BME280;45412;54.472;18.464;2023-02-20T13:20:53;98080.50;;;5.83;100.00
59588;BME280;45412;54.472;18.464;2023-02-20T13:23:43;98065.44;;;5.83;100.00
59588;BME280;45412;54.472;18.464;2023-02-20T13:29:28;98050.58;;;5.86;100.00
59588;BME280;45412;54.472;18.464;2023-02-20T13:35:54;98075.98;;;5.87;100.00
59588;BME280;45412;54.472;18.464;2023-02-20T13:42:29;98092.77;;;5.88;100.00
59588;BME280;45412;54.472;18.464;2023-02-20T13:45:41;98091.79;;;5.89;100.00
59588;BME280;45412;54.472;18.464;2023-02-20T13:56:59;98083.79;;;5.94;100.00
59588;BME280;45412;54.472;18.464;2023-02-20T13:59:53;98063.84;;;5.96;100.00
59588;BME280;45412;54.472;18.464;2023-02-20T14:02:41;98070.08;;;5.98;100.00
59588;BME280;45412;54.472;18.464;2023-02-20T14:05:31;98079.63;;;5.99;100.00
59588;BME280;45412;54.472;18.464;2023-02-20T14:08:19;98078.68;;;6.00;100.00
59588;BME280;45412;54.472;18.464;2023-02-20T14:14:28;98073.15;;;6.03;100.00
59588;BME280;45412;54.472;18.464;2023-02-20T14:17:20;98050.52;;;6.02;100.00
59588;BME280;45412;54.472;18.464;2023-02-20T14:20:24;98048.46;;;6.01;100.00
59588;BME280;45412;54.472;18.464;2023-02-20T14:23:26;98060.36;;;6.02;100.00
59588;BME280;45412;54.472;18.464;2023-02-20T14:29:30;98061.81;;;6.04;100.00
59588;BME280;45412;54.472;18.464;2023-02-20T14:32:18;98048.35;;;6.05;100.00
59588;BME280;45412;54.472;18.464;2023-02-20T14:35:27;98047.27;;;6.07;100.00
59588;BME280;45412;54.472;18.464;2023-02-20T14:38:52;98049.68;;;6.07;100.00
59588;BME280;45412;54.472;18.464;2023-02-20T14:42:01;98032.53;;;6.08;100.00
59588;BME280;45412;54.472;18.464;2023-02-20T14:44:59;98038.07;;;6.09;100.00
59588;BME280;45412;54.472;18.464;2023-02-20T14:47:59;98026.98;;;6.11;100.00
59588;BME280;45412;54.472;18.464;2023-02-20T14:51:44;98021.22;;;6.10;100.00
59588;BME280;45412;54.472;18.464;2023-02-20T14:54:24;98021.92;;;6.12;100.00
59588;BME280;45412;54.472;18.464;2023-02-20T14:57:17;98026.72;;;6.14;100.00
59588;BME280;45412;54.472;18.464;2023-02-20T15:03:27;98023.02;;;6.12;100.00
59588;BME280;45412;54.472;18.464;2023-02-20T15:06:18;98028.77;;;6.11;100.00
59588;BME280;45412;54.472;18.464;2023-02-20T15:09:09;98017.32;;;6.11;100.00
59588;BME280;45412;54.472;18.464;2023-02-20T15:12:40;97997.25;;;6.12;100.00
59588;BME280;45412;54.472;18.464;2023-02-20T15:15:33;98018.98;;;6.13;100.00
59588;BME280;45412;54.472;18.464;2023-02-20T15:18:44;98020.36;;;6.16;100.00
59588;BME280;45412;54.472;18.464;2023-02-20T15:21:40;98016.39;;;6.17;100.00
59588;BME280;45412;54.472;18.464;2023-02-20T15:24:37;98020.80;;;6.21;100.00
59588;BME280;45412;54.472;18.464;2023-02-20T15:27:25;98030.27;;;6.23;100.00
59588;BME280;45412;54.472;18.464;2023-02-20T15:30:16;98029.54;;;6.25;100.00
59588;BME280;45412;54.472;18.464;2023-02-20T15:33:07;98017.46;;;6.28;100.00
59588;BME280;45412;54.472;18.464;2023-02-20T15:35:57;98028.77;;;6.32;100.00
59588;BME280;45412;54.472;18.464;2023-02-20T15:38:46;98021.79;;;6.35;100.00
59588;BME280;45412;54.472;18.464;2023-02-20T15:41:34;98024.69;;;6.34;100.00
59588;BME280;45412;54.472;18.464;2023-02-20T15:44:22;98026.80;;;6.32;100.00
59588;BME280;45412;54.472;18.464;2023-02-20T15:47:10;98021.25;;;6.28;100.00
59588;BME280;45412;54.472;18.464;2023-02-20T15:49:58;98033.61;;;6.27;100.00
59588;BME280;45412;54.472;18.464;2023-02-20T15:52:47;98039.16;;;6.24;100.00
59588;BME280;45412;54.472;18.464;2023-02-20T15:55:35;98019.62;;;6.22;100.00
59588;BME280;45412;54.472;18.464;2023-02-20T15:58:36;98022.27;;;6.22;100.00
59588;BME280;45412;54.472;18.464;2023-02-20T16:01:25;98026.73;;;6.24;100.00
59588;BME280;45412;54.472;18.464;2023-02-20T16:04:17;98024.39;;;6.26;100.00
59588;BME280;45412;54.472;18.464;2023-02-20T16:07:05;98033.64;;;6.29;100.00
59588;BME280;45412;54.472;18.464;2023-02-20T16:09:53;98019.80;;;6.32;100.00
59588;BME280;45412;54.472;18.464;2023-02-20T16:12:41;98019.12;;;6.34;100.00
59588;BME280;45412;54.472;18.464;2023-02-20T16:15:29;98025.84;;;6.35;100.00
59588;BME280;45412;54.472;18.464;2023-02-20T16:18:20;98021.54;;;6.36;100.00
59588;BME280;45412;54.472;18.464;2023-02-20T16:21:13;98030.46;;;6.31;100.00
59588;BME280;45412;54.472;18.464;2023-02-20T16:24:02;98037.06;;;6.34;100.00
59588;BME280;45412;54.472;18.464;2023-02-20T16:26:50;98026.30;;;6.32;99.80
59588;BME280;45412;54.472;18.464;2023-02-20T16:29:38;98012.88;;;6.35;98.17
59588;BME280;45412;54.472;18.464;2023-02-20T16:32:28;97998.16;;;6.37;96.50
59588;BME280;45412;54.472;18.464;2023-02-20T16:35:16;98008.41;;;6.37;96.85
59588;BME280;45412;54.472;18.464;2023-02-20T16:38:04;98004.22;;;6.35;96.09
59588;BME280;45412;54.472;18.464;2023-02-20T16:40:52;98028.55;;;6.34;95.81
59588;BME280;45412;54.472;18.464;2023-02-20T16:43:41;98039.45;;;6.33;94.78
59588;BME280;45412;54.472;18.464;2023-02-20T16:46:29;98048.38;;;6.33;94.18
59588;BME280;45412;54.472;18.464;2023-02-20T16:49:25;98059.64;;;6.35;93.89
59588;BME280;45412;54.472;18.464;2023-02-20T16:52:35;98063.67;;;6.36;94.20
59588;BME280;45412;54.472;18.464;2023-02-20T16:55:30;98057.08;;;6.33;93.03